createdAt,value
2023-03-24T00:00:20.553Z,95518.41
2023-03-24T00:02:49.247Z,95508.97
2023-03-24T00:05:18.673Z,95508.75
2023-03-24T00:07:47.981Z,95501.97
2023-03-24T00:10:18.205Z,95501.16
2023-03-24T00:12:46.497Z,95503.22
2023-03-24T00:15:16.064Z,95503.22
2023-03-24T00:17:43.728Z,95500.94
2023-03-24T00:20:14.864Z,95500.13
2023-03-24T00:22:43.263Z,95486.53
2023-03-24T00:25:12.946Z,95487.13
2023-03-24T00:27:40.445Z,95484.44
2023-03-24T00:30:11.370Z,95483.63
2023-03-24T00:32:40.499Z,95477.91
2023-03-24T00:35:10.394Z,95475.00
2023-03-24T00:37:39.242Z,95464.94
2023-03-24T00:40:10.714Z,95465.75
2023-03-24T00:42:40.447Z,95464.16
2023-03-24T00:45:09.752Z,95459.66
2023-03-24T00:47:38.062Z,95455.53
2023-03-24T00:50:07.277Z,95447.53
2023-03-24T00:52:35.186Z,95447.69
2023-03-24T00:55:05.123Z,95447.75
2023-03-24T00:57:34.885Z,95436.63
2023-03-24T01:00:13.461Z,95431.63
2023-03-24T01:02:41.494Z,95429.66
2023-03-24T01:05:09.446Z,95430.09
2023-03-24T01:07:37.009Z,95433.59
2023-03-24T01:10:04.970Z,95431.75
2023-03-24T01:12:34.150Z,95438.31
2023-03-24T01:15:06.532Z,95441.63
2023-03-24T01:17:34.558Z,95437.91
2023-03-24T01:20:07.401Z,95446.31
2023-03-24T01:22:37.667Z,95447.28
2023-03-24T01:25:05.878Z,95445.38
2023-03-24T01:27:33.552Z,95444.53
2023-03-24T01:30:02.969Z,95438.53
2023-03-24T01:32:30.747Z,95449.94
2023-03-24T01:34:58.268Z,95446.28
2023-03-24T01:37:25.873Z,95438.88
2023-03-24T01:39:53.374Z,95439.19
2023-03-24T01:42:22.793Z,95438.56
2023-03-24T01:44:52.107Z,95435.75
2023-03-24T01:47:20.937Z,95434.16
2023-03-24T01:49:53.658Z,95429.28
2023-03-24T01:52:27.517Z,95425.56
2023-03-24T01:54:58.149Z,95434.38
2023-03-24T01:57:30.165Z,95442.00
2023-03-24T02:00:00.985Z,95476.44
2023-03-24T02:02:29.984Z,95476.44
2023-03-24T02:05:04.694Z,95464.31
2023-03-24T02:07:35.068Z,95440.41
2023-03-24T02:10:05.813Z,95439.16
2023-03-24T02:12:33.990Z,95442.44
2023-03-24T02:15:02.294Z,95452.03
2023-03-24T02:17:46.459Z,95468.81
2023-03-24T02:21:04.513Z,95474.25
2023-03-24T02:24:03.267Z,95479.38
2023-03-24T02:26:57.812Z,95466.66
2023-03-24T02:30:02.023Z,95463.38
2023-03-24T02:33:01.483Z,95467.91
2023-03-24T02:35:51.602Z,95463.81
2023-03-24T02:38:45.592Z,95455.78
2023-03-24T02:41:20.926Z,95446.22
2023-03-24T02:43:56.522Z,95451.13
2023-03-24T02:46:26.983Z,95437.72
2023-03-24T02:49:09.632Z,95439.75
2023-03-24T02:51:41.158Z,95428.72
2023-03-24T02:54:12.372Z,95427.28
2023-03-24T02:56:48.188Z,95424.16
2023-03-24T02:59:21.238Z,95424.00
2023-03-24T03:01:54.251Z,95415.06
2023-03-24T03:04:29.289Z,95396.22
2023-03-24T03:07:00.647Z,95398.09
2023-03-24T03:09:29.743Z,95395.06
2023-03-24T03:12:01.463Z,95387.81
2023-03-24T03:14:34.993Z,95382.78
2023-03-24T03:17:06.580Z,95378.13
2023-03-24T03:19:39.203Z,95372.41
2023-03-24T03:22:13.894Z,95372.16
2023-03-24T03:24:46.748Z,95365.06
2023-03-24T03:27:18.953Z,95363.13
2023-03-24T03:29:50.622Z,95361.50
2023-03-24T03:32:24.691Z,95362.56
2023-03-24T03:35:01.048Z,95351.94
2023-03-24T03:37:34.706Z,95358.56
2023-03-24T03:40:09.081Z,95349.06
2023-03-24T03:42:38.020Z,95339.34
2023-03-24T03:45:09.226Z,95354.44
2023-03-24T03:47:37.223Z,95343.53
2023-03-24T03:50:05.818Z,95340.25
2023-03-24T03:52:33.354Z,95344.28
2023-03-24T03:55:01.249Z,95331.13
2023-03-24T03:57:28.783Z,95337.22
2023-03-24T03:59:58.781Z,95333.22
2023-03-24T04:02:37.081Z,95317.94
2023-03-24T04:05:27.610Z,95319.63
2023-03-24T04:08:08.332Z,95325.78
2023-03-24T04:10:51.538Z,95332.28
2023-03-24T04:13:28.386Z,95326.75
2023-03-24T04:16:01.640Z,95306.41
2023-03-24T04:18:38.720Z,95322.44
2023-03-24T04:21:28.470Z,95314.66
2023-03-24T04:24:07.357Z,95305.59
2023-03-24T04:26:41.411Z,95318.78
2023-03-24T04:29:18.461Z,95306.63
2023-03-24T04:31:53.588Z,95305.03
2023-03-24T04:34:25.941Z,95313.75
2023-03-24T04:37:02.678Z,95313.16
2023-03-24T04:39:32.042Z,95313.88
2023-03-24T04:42:04.496Z,95329.88
2023-03-24T04:44:33.861Z,95339.63
2023-03-24T04:47:05.672Z,95341.38
2023-03-24T04:49:33.142Z,95334.41
2023-03-24T04:52:00.848Z,95313.75
2023-03-24T04:54:29.722Z,95317.69
2023-03-24T04:56:59.259Z,95324.78
2023-03-24T04:59:27.123Z,95332.63
2023-03-24T05:01:54.879Z,95323.13
2023-03-24T05:04:25.563Z,95313.44
2023-03-24T05:06:53.344Z,95317.63
2023-03-24T05:09:23.136Z,95333.94
2023-03-24T05:11:51.682Z,95344.16
2023-03-24T05:14:19.502Z,95330.22
2023-03-24T05:16:47.009Z,95334.19
2023-03-24T05:19:14.557Z,95348.19
2023-03-24T05:21:43.704Z,95352.00
2023-03-24T05:24:12.287Z,95341.22
2023-03-24T05:26:39.797Z,95352.94
2023-03-24T05:29:07.244Z,95355.19
2023-03-24T05:31:34.754Z,95351.56
2023-03-24T05:34:02.227Z,95346.22
2023-03-24T05:36:29.699Z,95347.31
2023-03-24T05:38:58.508Z,95341.97
2023-03-24T05:41:26.017Z,95346.69
2023-03-24T05:43:53.504Z,95341.91
2023-03-24T05:46:21.015Z,95344.66
2023-03-24T05:48:48.550Z,95346.75
2023-03-24T05:51:16.087Z,95346.41
2023-03-24T05:53:43.585Z,95338.22
2023-03-24T05:56:12.708Z,95332.13
2023-03-24T05:58:40.230Z,95334.94
2023-03-24T06:01:10.177Z,95337.47
2023-03-24T06:03:39.023Z,95338.72
2023-03-24T06:06:08.007Z,95338.75
2023-03-24T06:08:36.020Z,95340.91
2023-03-24T06:11:04.518Z,95327.22
2023-03-24T06:13:33.384Z,95329.13
2023-03-24T06:16:03.600Z,95322.16
2023-03-24T06:18:32.015Z,95329.16
2023-03-24T06:20:59.521Z,95324.00
2023-03-24T06:23:28.563Z,95318.88
2023-03-24T06:25:58.275Z,95319.69
2023-03-24T06:28:30.141Z,95309.53
2023-03-24T06:30:59.314Z,95318.88
2023-03-24T06:33:26.864Z,95321.31
2023-03-24T06:35:54.431Z,95327.63
2023-03-24T06:38:22.190Z,95336.09
2023-03-24T06:40:49.783Z,95336.94
2023-03-24T06:43:17.229Z,95327.50
2023-03-24T06:45:45.597Z,95334.28
2023-03-24T06:48:14.736Z,95325.28
2023-03-24T06:50:42.412Z,95325.25
2023-03-24T06:53:09.971Z,95316.34
2023-03-24T06:55:37.692Z,95310.03
2023-03-24T06:58:05.217Z,95306.16
2023-03-24T07:00:32.912Z,95302.88
2023-03-24T07:03:02.418Z,95289.53
2023-03-24T07:05:32.139Z,95295.06
2023-03-24T07:10:30.115Z,95307.00
2023-03-24T07:12:59.357Z,95303.50
2023-03-24T07:15:26.938Z,95312.31
2023-03-24T07:17:54.411Z,95306.66
2023-03-24T07:20:22.363Z,95302.06
2023-03-24T07:22:51.214Z,95305.75
2023-03-24T07:25:21.180Z,95307.16
2023-03-24T07:27:48.718Z,95295.13
2023-03-24T07:30:17.224Z,95311.25
2023-03-24T07:32:49.071Z,95313.03
2023-03-24T07:35:18.667Z,95322.22
2023-03-24T07:37:46.416Z,95327.38
2023-03-24T07:40:16.098Z,95329.47
2023-03-24T07:42:44.462Z,95341.88
2023-03-24T07:45:13.235Z,95353.34
2023-03-24T07:47:44.798Z,95357.03
2023-03-24T07:50:13.955Z,95356.19
2023-03-24T07:52:43.668Z,95357.03
2023-03-24T07:55:12.834Z,95354.97
2023-03-24T07:57:43.180Z,95350.06
2023-03-24T08:00:15.941Z,95348.00
2023-03-24T08:02:43.868Z,95359.94
2023-03-24T08:05:14.097Z,95357.81
2023-03-24T08:07:42.904Z,95367.69
2023-03-24T08:10:11.690Z,95364.03
2023-03-24T08:12:39.359Z,95366.06
2023-03-24T08:15:10.003Z,95382.47
2023-03-24T08:17:37.742Z,95381.69
2023-03-24T08:20:14.334Z,95381.03
2023-03-24T08:22:43.305Z,95384.97
2023-03-24T08:25:11.777Z,95389.47
2023-03-24T08:27:43.320Z,95385.75
2023-03-24T08:30:16.914Z,95388.66
2023-03-24T08:32:46.334Z,95376.75
2023-03-24T08:35:15.786Z,95391.53
2023-03-24T08:37:45.264Z,95390.88
2023-03-24T08:40:17.180Z,95387.44
2023-03-24T08:42:45.596Z,95399.94
2023-03-24T08:45:14.932Z,95394.00
2023-03-24T08:47:42.726Z,95391.91
2023-03-24T08:50:11.519Z,95395.22
2023-03-24T08:52:38.987Z,95402.00
2023-03-24T08:55:07.596Z,95398.09
2023-03-24T08:57:35.063Z,95397.47
2023-03-24T09:00:04.302Z,95398.50
2023-03-24T09:02:33.190Z,95396.03
2023-03-24T09:05:01.164Z,95403.84
2023-03-24T09:07:28.622Z,95401.38
2023-03-24T09:09:56.325Z,95417.41
2023-03-24T09:12:23.886Z,95412.66
2023-03-24T09:14:51.864Z,95422.72
2023-03-24T09:17:19.726Z,95420.66
2023-03-24T09:19:48.518Z,95425.22
2023-03-24T09:22:15.997Z,95425.97
2023-03-24T09:24:44.309Z,95422.50
2023-03-24T09:27:12.077Z,95428.66
2023-03-24T09:29:39.668Z,95435.81
2023-03-24T09:32:07.261Z,95432.13
2023-03-24T09:34:34.979Z,95435.59
2023-03-24T09:37:03.830Z,95437.88
2023-03-24T09:39:32.266Z,95429.66
2023-03-24T09:41:59.736Z,95442.38
2023-03-24T09:44:32.537Z,95439.31
2023-03-24T09:47:04.897Z,95450.97
2023-03-24T09:49:38.319Z,95452.28
2023-03-24T09:52:09.052Z,95447.75
2023-03-24T09:54:43.013Z,95440.19
2023-03-24T09:57:19.812Z,95453.53
2023-03-24T09:59:47.429Z,95451.44
2023-03-24T10:02:17.348Z,95449.84
2023-03-24T10:04:44.923Z,95463.63
2023-03-24T10:07:22.882Z,95464.06
2023-03-24T10:09:57.558Z,95475.53
2023-03-24T10:12:36.361Z,95465.56
2023-03-24T10:15:24.320Z,95476.31
2023-03-24T10:18:15.871Z,95477.47
2023-03-24T10:20:48.736Z,95477.06
2023-03-24T10:23:27.991Z,95478.78
2023-03-24T10:26:01.745Z,95477.66
2023-03-24T10:28:36.803Z,95484.84
2023-03-24T10:31:11.217Z,95473.00
2023-03-24T10:33:43.462Z,95476.91
2023-03-24T10:36:14.667Z,95475.84
2023-03-24T10:38:43.549Z,95471.34
2023-03-24T10:41:16.887Z,95465.56
2023-03-24T10:43:45.463Z,95450.38
2023-03-24T10:46:15.663Z,95429.50
2023-03-24T10:48:45.570Z,95416.59
2023-03-24T10:51:16.864Z,95390.66
2023-03-24T10:53:48.539Z,95347.19
2023-03-24T10:56:37.642Z,95350.50
2023-03-24T10:59:16.719Z,95359.91
2023-03-24T11:01:44.322Z,95385.78
2023-03-24T11:04:15.877Z,95394.38
2023-03-24T11:07:00.242Z,95395.97
2023-03-24T11:09:32.420Z,95402.66
2023-03-24T11:12:04.179Z,95392.09
2023-03-24T11:14:31.717Z,95401.81
2023-03-24T11:17:11.322Z,95401.28
2023-03-24T11:19:39.215Z,95409.88
2023-03-24T11:22:08.873Z,95413.38
2023-03-24T11:24:38.874Z,95419.72
2023-03-24T11:27:06.898Z,95411.25
2023-03-24T11:29:39.259Z,95401.81
2023-03-24T11:32:14.007Z,95421.88
2023-03-24T11:34:46.736Z,95426.13
2023-03-24T11:37:18.438Z,95432.19
2023-03-24T11:40:16.849Z,95436.97
2023-03-24T11:42:46.034Z,95445.59
2023-03-24T11:45:27.772Z,95434.75
2023-03-24T11:47:58.103Z,95431.03
2023-03-24T11:50:29.819Z,95429.59
2023-03-24T11:53:04.728Z,95425.09
2023-03-24T11:55:37.980Z,95419.34
2023-03-24T11:58:17.454Z,95408.50
2023-03-24T12:00:49.514Z,95401.63
2023-03-24T12:03:49.587Z,95390.13
2023-03-24T12:06:31.286Z,95382.03
2023-03-24T12:09:10.503Z,95384.94
2023-03-24T12:11:53.231Z,95381.94
2023-03-24T12:14:29.957Z,95391.59
2023-03-24T12:17:04.727Z,95382.09
2023-03-24T12:20:12.261Z,95361.69
2023-03-24T12:22:52.890Z,95367.97
2023-03-24T12:25:47.075Z,95348.94
2023-03-24T12:28:33.883Z,95346.97
2023-03-24T12:31:15.319Z,95365.91
2023-03-24T12:33:51.476Z,95354.13
2023-03-24T12:36:38.984Z,95338.66
2023-03-24T12:39:11.446Z,95341.47
2023-03-24T12:41:52.731Z,95342.06
2023-03-24T12:44:51.495Z,95345.03
2023-03-24T12:47:31.288Z,95345.28
2023-03-24T12:50:17.109Z,95360.59
2023-03-24T12:55:40.368Z,95342.88
2023-03-24T12:58:15.505Z,95340.13
2023-03-24T13:00:53.697Z,95331.94
2023-03-24T13:03:29.246Z,95333.44
2023-03-24T13:06:07.516Z,95342.06
2023-03-24T13:08:45.145Z,95315.47
2023-03-24T13:11:30.120Z,95317.56
2023-03-24T13:14:04.126Z,95319.59
2023-03-24T13:16:38.747Z,95312.72
2023-03-24T13:19:15.416Z,95307.00
2023-03-24T13:21:43.744Z,95305.50
2023-03-24T13:24:15.312Z,95294.97
2023-03-24T13:26:52.025Z,95314.94
2023-03-24T13:29:48.430Z,95292.53
2023-03-24T13:32:30.068Z,95305.78
2023-03-24T13:35:02.753Z,95305.66
2023-03-24T13:37:35.760Z,95294.50
2023-03-24T13:40:10.986Z,95287.41
2023-03-24T13:42:44.610Z,95300.22
2023-03-24T13:45:25.926Z,95309.13
2023-03-24T13:48:06.365Z,95306.41
2023-03-24T13:50:35.095Z,95308.72
2023-03-24T13:53:08.307Z,95317.53
2023-03-24T13:55:39.246Z,95314.00
2023-03-24T13:58:10.621Z,95305.00
2023-03-24T14:01:06.485Z,95299.38
2023-03-24T14:03:37.605Z,95282.63
2023-03-24T14:06:09.056Z,95283.03
2023-03-24T14:08:55.185Z,95276.06
2023-03-24T14:11:42.941Z,95269.75
2023-03-24T14:14:19.827Z,95265.75
2023-03-24T14:16:53.097Z,95273.78
2023-03-24T14:19:24.915Z,95262.72
2023-03-24T14:21:58.031Z,95260.19
2023-03-24T14:24:28.937Z,95251.84
2023-03-24T14:26:56.897Z,95258.06
2023-03-24T14:29:38.778Z,95248.97
2023-03-24T14:32:19.256Z,95256.19
2023-03-24T14:34:56.810Z,95257.44
2023-03-24T14:37:25.254Z,95244.56
2023-03-24T14:39:53.624Z,95260.66
2023-03-24T14:42:46.625Z,95245.50
2023-03-24T14:45:40.419Z,95244.72
2023-03-24T14:48:22.895Z,95239.31
2023-03-24T14:50:53.798Z,95245.53
2023-03-24T14:53:23.129Z,95242.72
2023-03-24T14:55:51.725Z,95238.63
2023-03-24T14:58:24.075Z,95241.66
2023-03-24T15:03:37.912Z,95226.66
2023-03-24T15:06:15.697Z,95238.56
2023-03-24T15:08:46.954Z,95247.78
2023-03-24T15:11:18.081Z,95250.84
2023-03-24T15:13:48.944Z,95238.63
2023-03-24T15:16:23.704Z,95246.66
2023-03-24T15:19:01.528Z,95250.47
2023-03-24T15:21:35.633Z,95248.91
2023-03-24T15:24:05.118Z,95245.94
2023-03-24T15:26:33.317Z,95233.47
2023-03-24T15:29:03.695Z,95245.72
2023-03-24T15:31:31.476Z,95232.38
2023-03-24T15:34:25.785Z,95231.44
2023-03-24T15:36:57.416Z,95248.66
2023-03-24T15:39:27.900Z,95245.44
2023-03-24T15:41:55.986Z,95256.66
2023-03-24T15:44:27.668Z,95262.69
2023-03-24T15:46:57.171Z,95257.41
2023-03-24T15:49:27.363Z,95264.00
2023-03-24T15:52:00.937Z,95281.03
2023-03-24T15:54:31.961Z,95276.22
2023-03-24T15:57:17.117Z,95284.63
2023-03-24T15:59:48.113Z,95282.78
2023-03-24T16:02:26.104Z,95278.22
2023-03-24T16:05:09.909Z,95268.81
2023-03-24T16:07:42.334Z,95279.69
2023-03-24T16:10:28.990Z,95296.66
2023-03-24T16:12:56.456Z,95306.47
2023-03-24T16:15:24.023Z,95331.44
2023-03-24T16:17:52.028Z,95344.41
2023-03-24T16:20:21.776Z,95345.06
2023-03-24T16:22:50.612Z,95364.69
2023-03-24T16:25:18.169Z,95367.94
2023-03-24T16:27:45.651Z,95357.97
2023-03-24T16:30:21.538Z,95369.25
2023-03-24T16:32:49.045Z,95361.13
2023-03-24T16:35:16.819Z,95350.22
2023-03-24T16:37:44.564Z,95360.69
2023-03-24T16:40:26.310Z,95370.66
2023-03-24T16:42:53.797Z,95373.38
2023-03-24T16:45:21.278Z,95379.50
2023-03-24T16:47:48.747Z,95389.84
2023-03-24T16:50:28.414Z,95384.56
2023-03-24T16:52:55.927Z,95373.22
2023-03-24T16:55:24.842Z,95381.16
2023-03-24T16:57:52.364Z,95392.50
2023-03-24T17:00:20.350Z,95385.91
2023-03-24T17:02:49.293Z,95372.66
2023-03-24T17:05:24.291Z,95376.03
2023-03-24T17:07:52.238Z,95367.38
2023-03-24T17:10:19.912Z,95357.94
2023-03-24T17:12:49.626Z,95363.97
2023-03-24T17:15:20.889Z,95358.09
2023-03-24T17:17:48.420Z,95377.88
2023-03-24T17:20:16.337Z,95376.41
2023-03-24T17:22:45.792Z,95371.75
2023-03-24T17:25:15.355Z,95388.50
2023-03-24T17:27:42.884Z,95385.66
2023-03-24T17:30:16.764Z,95391.97
2023-03-24T17:32:44.473Z,95386.72
2023-03-24T17:35:13.748Z,95383.28
2023-03-24T17:37:41.778Z,95396.16
2023-03-24T17:40:11.865Z,95383.63
2023-03-24T17:42:41.381Z,95381.53
2023-03-24T17:45:11.849Z,95392.69
2023-03-24T17:47:41.670Z,95396.31
2023-03-24T17:50:10.455Z,95397.28
2023-03-24T17:52:38.675Z,95398.91
2023-03-24T17:55:07.531Z,95391.88
2023-03-24T17:57:35.870Z,95397.09
2023-03-24T18:00:06.392Z,95408.13
2023-03-24T18:02:33.840Z,95410.16
2023-03-24T18:05:03.262Z,95413.34
2023-03-24T18:07:30.967Z,95411.81
2023-03-24T18:09:58.496Z,95419.03
2023-03-24T18:12:27.427Z,95415.00
2023-03-24T18:14:54.918Z,95419.75
2023-03-24T18:17:22.409Z,95420.66
2023-03-24T18:19:51.006Z,95410.44
2023-03-24T18:22:19.815Z,95409.50
2023-03-24T18:24:47.400Z,95410.34
2023-03-24T18:27:14.973Z,95400.38
2023-03-24T18:29:42.430Z,95406.56
2023-03-24T18:32:10.026Z,95409.06
2023-03-24T18:34:38.747Z,95402.59
2023-03-24T18:37:06.940Z,95403.56
2023-03-24T18:39:39.185Z,95396.59
2023-03-24T18:42:06.666Z,95411.31
2023-03-24T18:44:34.333Z,95404.84
2023-03-24T18:47:01.979Z,95417.97
2023-03-24T18:49:29.803Z,95416.38
2023-03-24T18:51:57.265Z,95408.59
2023-03-24T18:54:24.845Z,95397.25
2023-03-24T18:56:53.664Z,95393.38
2023-03-24T18:59:21.238Z,95398.50
2023-03-24T19:01:48.806Z,95405.66
2023-03-24T19:04:16.422Z,95419.19
2023-03-24T19:06:44.266Z,95414.53
2023-03-24T19:09:13.398Z,95410.88
2023-03-24T19:11:43.339Z,95402.19
2023-03-24T19:14:12.575Z,95405.69
2023-03-24T19:16:40.099Z,95419.47
2023-03-24T19:19:07.857Z,95423.59
2023-03-24T19:21:35.648Z,95428.38
2023-03-24T19:24:03.118Z,95421.94
2023-03-24T19:26:30.577Z,95407.31
2023-03-24T19:28:58.096Z,95417.25
2023-03-24T19:31:26.949Z,95427.13
2023-03-24T19:33:55.041Z,95423.25
2023-03-24T19:36:22.537Z,95422.28
2023-03-24T19:38:50.508Z,95420.94
2023-03-24T19:41:18.166Z,95424.47
2023-03-24T19:43:45.738Z,95420.44
2023-03-24T19:46:13.251Z,95427.34
2023-03-24T19:48:42.089Z,95428.53
2023-03-24T19:51:09.574Z,95426.81
2023-03-24T19:53:37.054Z,95433.47
2023-03-24T19:56:05.034Z,95440.63
2023-03-24T19:58:32.502Z,95441.50
2023-03-24T20:00:59.974Z,95449.84
2023-03-24T20:03:28.753Z,95451.75
2023-03-24T20:05:57.785Z,95471.34
2023-03-24T20:08:25.948Z,95470.91
2023-03-24T20:10:53.419Z,95477.56
2023-03-24T20:13:20.876Z,95471.19
2023-03-24T20:15:48.605Z,95472.72
2023-03-24T20:18:16.520Z,95476.22
2023-03-24T20:20:44.034Z,95481.09
2023-03-24T20:23:12.836Z,95471.72
2023-03-24T20:25:42.455Z,95473.56
2023-03-24T20:28:10.374Z,95477.31
2023-03-24T20:30:39.621Z,95483.44
2023-03-24T20:33:07.338Z,95492.44
2023-03-24T20:35:36.496Z,95488.09
2023-03-24T20:38:04.237Z,95497.66
2023-03-24T20:40:33.067Z,95494.50
2023-03-24T20:43:00.733Z,95493.69
2023-03-24T20:45:28.267Z,95491.13
2023-03-24T20:47:55.983Z,95484.19
2023-03-24T20:50:24.705Z,95477.94
2023-03-24T20:52:52.187Z,95478.03
2023-03-24T20:55:19.650Z,95487.47
2023-03-24T20:57:48.480Z,95487.81
2023-03-24T21:00:16.729Z,95490.38
2023-03-24T21:02:44.354Z,95490.56
2023-03-24T21:05:12.236Z,95494.78
2023-03-24T21:07:43.518Z,95490.72
2023-03-24T21:10:12.046Z,95486.69
2023-03-24T21:12:53.038Z,95489.97
2023-03-24T21:15:24.579Z,95486.88
2023-03-24T21:17:52.723Z,95487.38
2023-03-24T21:20:20.904Z,95495.69
2023-03-24T21:22:53.293Z,95493.13
2023-03-24T21:25:21.314Z,95492.31
2023-03-24T21:27:48.939Z,95491.44
2023-03-24T21:30:18.812Z,95485.81
2023-03-24T21:32:48.532Z,95482.34
2023-03-24T21:35:17.485Z,95480.25
2023-03-24T21:37:46.681Z,95487.47
2023-03-24T21:40:18.168Z,95483.47
2023-03-24T21:42:49.473Z,95487.91
2023-03-24T21:45:18.914Z,95487.84
2023-03-24T21:47:49.689Z,95483.53
2023-03-24T21:50:22.701Z,95487.81
2023-03-24T21:52:51.243Z,95491.69
2023-03-24T21:55:20.406Z,95489.13
2023-03-24T21:57:49.735Z,95498.84
2023-03-24T22:00:19.460Z,95494.66
2023-03-24T22:02:50.486Z,95493.19
2023-03-24T22:05:20.746Z,95507.06
2023-03-24T22:07:49.280Z,95499.97
2023-03-24T22:10:22.491Z,95505.88
2023-03-24T22:12:50.638Z,95502.28
2023-03-24T22:15:18.780Z,95508.47
2023-03-24T22:17:47.776Z,95495.78
2023-03-24T22:20:15.598Z,95495.38
2023-03-24T22:22:43.196Z,95500.13
2023-03-24T22:25:13.132Z,95491.06
2023-03-24T22:27:41.304Z,95497.50
2023-03-24T22:30:11.007Z,95505.69
2023-03-24T22:32:38.931Z,95508.91
2023-03-24T22:35:09.068Z,95511.59
2023-03-24T22:37:36.658Z,95516.97
2023-03-24T22:40:06.150Z,95523.38
2023-03-24T22:42:33.750Z,95524.06
2023-03-24T22:45:01.268Z,95528.97
2023-03-24T22:47:29.061Z,95532.03
2023-03-24T22:49:56.602Z,95522.75
2023-03-24T22:52:27.021Z,95517.59
2023-03-24T22:54:55.639Z,95518.00
2023-03-24T22:57:23.425Z,95529.53
2023-03-24T22:59:50.988Z,95526.91
2023-03-24T23:02:24.266Z,95530.00
2023-03-24T23:04:51.932Z,95532.78
2023-03-24T23:07:22.992Z,95527.81
2023-03-24T23:09:53.103Z,95531.47
2023-03-24T23:12:21.331Z,95529.59
2023-03-24T23:14:48.822Z,95537.88
2023-03-24T23:17:16.301Z,95532.91
2023-03-24T23:19:43.982Z,95535.50
2023-03-24T23:22:11.454Z,95533.66
2023-03-24T23:24:39.432Z,95537.75
2023-03-24T23:27:08.587Z,95532.56
2023-03-24T23:29:39.421Z,95537.94
2023-03-24T23:32:07.290Z,95541.84
2023-03-24T23:34:35.117Z,95548.88
2023-03-24T23:37:03.381Z,95549.72
2023-03-24T23:39:31.754Z,95543.09
2023-03-24T23:41:59.293Z,95546.56
2023-03-24T23:44:28.141Z,95545.06
2023-03-24T23:46:55.998Z,95552.34
2023-03-24T23:49:23.482Z,95550.00
2023-03-24T23:51:51.222Z,95557.50
2023-03-24T23:54:18.691Z,95551.53
2023-03-24T23:56:47.064Z,95539.78
2023-03-24T23:59:14.689Z,95557.81
